Map

Track Data

SID SEASON NUMBER BASIN SUBBASIN NAME ISO_TIME NATURE LAT LON WMO_WIND WMO_PRES WMO_AGENCY TRACK_TYPE DIST2LAND LANDFALL IFLAG USA_AGENCY USA_ATCF_ID USA_LAT USA_LON USA_RECORD USA_STATUS USA_WIND USA_PRES USA_SSHS USA_R34_NE USA_R34_SE USA_R34_SW USA_R34_NW USA_R50_NE USA_R50_SE USA_R50_SW USA_R50_NW USA_R64_NE USA_R64_SE USA_R64_SW USA_R64_NW USA_POCI USA_ROCI USA_RMW USA_EYE TOKYO_LAT TOKYO_LON TOKYO_GRADE TOKYO_WIND TOKYO_PRES TOKYO_R50_DIR TOKYO_R50_LONG TOKYO_R50_SHORT TOKYO_R30_DIR TOKYO_R30_LONG TOKYO_R30_SHORT TOKYO_LAND CMA_LAT CMA_LON CMA_CAT CMA_WIND CMA_PRES HKO_LAT HKO_LON HKO_CAT HKO_WIND HKO_PRES NEWDELHI_LAT NEWDELHI_LON NEWDELHI_GRADE NEWDELHI_WIND NEWDELHI_PRES NEWDELHI_CI NEWDELHI_DP NEWDELHI_POCI REUNION_LAT REUNION_LON REUNION_TYPE REUNION_WIND REUNION_PRES REUNION_TNUM REUNION_CI REUNION_RMW REUNION_R34_NE REUNION_R34_SE REUNION_R34_SW REUNION_R34_NW REUNION_R50_NE REUNION_R50_SE REUNION_R50_SW REUNION_R50_NW REUNION_R64_NE REUNION_R64_SE REUNION_R64_SW REUNION_R64_NW BOM_LAT BOM_LON BOM_TYPE BOM_WIND BOM_PRES BOM_TNUM BOM_CI BOM_RMW BOM_R34_NE BOM_R34_SE BOM_R34_SW BOM_R34_NW BOM_R50_NE BOM_R50_SE BOM_R50_SW BOM_R50_NW BOM_R64_NE BOM_R64_SE BOM_R64_SW BOM_R64_NW BOM_ROCI BOM_POCI BOM_EYE BOM_POS_METHOD BOM_PRES_METHOD NADI_LAT NADI_LON NADI_CAT NADI_WIND NADI_PRES WELLINGTON_LAT WELLINGTON_LON WELLINGTON_WIND WELLINGTON_PRES DS824_LAT DS824_LON DS824_STAGE DS824_WIND DS824_PRES TD9636_LAT TD9636_LON TD9636_STAGE TD9636_WIND TD9636_PRES TD9635_LAT TD9635_LON TD9635_WIND TD9635_PRES TD9635_ROCI NEUMANN_LAT NEUMANN_LON NEUMANN_CLASS NEUMANN_WIND NEUMANN_PRES MLC_LAT MLC_LON MLC_CLASS MLC_WIND MLC_PRES USA_GUST BOM_GUST BOM_GUST_PER REUNION_GUST REUNION_GUST_PER USA_SEAHGT USA_SEARAD_NE USA_SEARAD_SE USA_SEARAD_SW USA_SEARAD_NW STORM_SPEED STORM_DIR
1888257N15099 1888 47 NI BB NOT_NAMED 1888-09-13 00:00:00 TS 14.9000 98.9000 main 0 0 _________O____ -1 14.9000 98.9000 TC 45 7 285
1888257N15099 1888 47 NI BB NOT_NAMED 1888-09-13 03:00:00 TS 14.9935 98.5334 main 0 0 _________PO___ -1 15.0403 98.3501 TC 49 14.9000 98.9000 3 9 286
1888257N15099 1888 47 NI BB NOT_NAMED 1888-09-13 06:00:00 TS 15.1491 98.0209 main 0 0 _________OP___ -1 15.2000 97.8000 TC 54 15.0728 98.3522 3 11 288
1888257N15099 1888 47 NI BB NOT_NAMED 1888-09-13 09:00:00 TS 15.3296 97.4871 main 21 21 _________PP___ -1 15.3924 97.2500 TC 59 15.2460 97.8032 3 11 290
1888257N15099 1888 47 NI BB NOT_NAMED 1888-09-13 12:00:00 TS 15.5106 96.9763 main 78 78 _________OP___ -1 15.6000 96.7000 TC 64 15.4212 97.2526 3 11 290
1888257N15099 1888 47 NI BB NOT_NAMED 1888-09-13 15:00:00 TS 15.6999 96.4249 main 74 24 _________PO___ -1 15.7999 96.1499 TC 64 15.6000 96.7000 4 11 290
1888257N15099 1888 47 NI BB NOT_NAMED 1888-09-13 18:00:00 TS 15.8922 95.8728 main 24 0 _________OP___ -1 16.0000 95.6000 TC 64 15.7843 96.1456 4 11 290
1888257N15099 1888 47 NI BB NOT_NAMED 1888-09-13 21:00:00 TS 16.0847 95.3209 main 0 0 _________PP___ -1 16.1924 95.0498 TC 64 15.9771 95.5920 4 11 291
1888257N15099 1888 47 NI BB NOT_NAMED 1888-09-14 00:00:00 TS 16.2906 94.7712 main 0 0 _________OP___ -1 16.4000 94.5000 TC 64 16.1812 95.0424 4 11 292
1888257N15099 1888 47 NI BB NOT_NAMED 1888-09-14 03:00:00 TS 16.5212 94.2212 main 10 10 _________PO___ -1 16.6424 93.9425 TC 64 16.4000 94.5000 4 11 295
1888257N15099 1888 47 NI BB NOT_NAMED 1888-09-14 06:00:00 TS 16.7676 93.6838 main 72 72 _________OP___ -1 16.9000 93.4000 TC 64 16.6351 93.9676 4 11 296
1888257N15099 1888 47 NI BB NOT_NAMED 1888-09-14 09:00:00 TS 17.0171 93.1710 main 128 128 _________PP___ -1 17.1498 92.8998 TC 64 16.8844 93.4421 4 11 297
1888257N15099 1888 47 NI BB NOT_NAMED 1888-09-14 12:00:00 TS 17.2707 92.6603 main 186 186 _________OP___ -1 17.4000 92.4000 TC 64 17.1414 92.9206 4 11 297
1888257N15099 1888 47 NI BB NOT_NAMED 1888-09-14 15:00:00 TS 17.5250 92.1250 main 238 230 _________PO___ -1 17.6500 91.8499 TC 64 17.4000 92.4000 4 11 296
1888257N15099 1888 47 NI BB NOT_NAMED 1888-09-14 18:00:00 TS 17.7746 91.5953 main 259 259 _________OP___ -1 17.9000 91.3000 TC 64 17.6493 91.8906 4 11 297
1888257N15099 1888 47 NI BB NOT_NAMED 1888-09-14 21:00:00 TS 18.0243 91.0932 main 296 296 _________PP___ -1 18.1497 90.8073 TC 64 17.8989 91.3791 4 11 297
1888257N15099 1888 47 NI BB NOT_NAMED 1888-09-15 00:00:00 TS 18.2746 90.5765 main 313 313 _________OP___ -1 18.4000 90.3000 TC 64 18.1492 90.8531 4 11 296
1888257N15099 1888 47 NI BB NOT_NAMED 1888-09-15 03:00:00 TS 18.5249 90.0112 main 347 314 _________PO___ -1 18.6499 89.7223 TC 64 18.4000 90.3000 4 12 294
1888257N15099 1888 47 NI BB NOT_NAMED 1888-09-15 06:00:00 TS 18.7749 89.4037 main 314 263 _________OP___ -1 18.9000 89.1000 TC 64 18.6497 89.7074 4 13 293
1888257N15099 1888 47 NI BB NOT_NAMED 1888-09-15 09:00:00 TS 19.0247 88.7721 main 263 192 _________PP___ -1 19.1498 88.4573 TC 64 18.8996 89.0869 4 13 292
1888257N15099 1888 47 NI BB NOT_NAMED 1888-09-15 12:00:00 TS 19.2748 88.1240 main 184 122 _________OP___ -1 19.4000 87.8000 TC 64 19.1496 88.4479 4 13 292
1888257N15099 1888 47 NI BB NOT_NAMED 1888-09-15 15:00:00 TS 19.5249 87.4749 main 122 56 _________PO___ -1 19.6498 87.1498 TC 55 19.4000 87.8000 4 13 293
1888257N15099 1888 47 NI BB NOT_NAMED 1888-09-15 18:00:00 TS 19.7870 86.8247 main 47 0 _________OP___ -1 19.9000 86.5000 TC 47 19.6740 87.1493 4 13 293
1888257N15099 1888 47 NI BB NOT_NAMED 1888-09-15 21:00:00 TS 20.0584 86.1678 main 0 0 _________PP___ -1 20.1723 85.8426 TC 38 19.9445 86.4930 4 13 293
1888257N15099 1888 47 NI BB NOT_NAMED 1888-09-16 00:00:00 TS 20.2964 85.5200 main 0 0 _________OP___ -1 20.4000 85.2000 TC 30 20.1928 85.8401 4 13 289
1888257N15099 1888 47 NI BB NOT_NAMED 1888-09-16 03:00:00 TS 20.4611 84.8961 main 0 0 _________PO___ -1 20.5222 84.5921 TC 30 20.4000 85.2000 1 12 283
1888257N15099 1888 47 NI BB NOT_NAMED 1888-09-16 06:00:00 TS 20.5711 84.2943 main 0 0 _________OP___ -1 20.6000 84.0000 TC 30 20.5421 84.5885 1 11 281
1888257N15099 1888 47 NI BB NOT_NAMED 1888-09-16 09:00:00 TS 20.6717 83.6955 main 0 0 _________PP___ -1 20.6998 83.3999 TC 30 20.6437 83.9911 1 11 280
1888257N15099 1888 47 NI BB NOT_NAMED 1888-09-16 12:00:00 TS 20.7617 83.0990 main 0 0 _________OP___ -1 20.8000 82.8000 TC 30 20.7234 83.3981 1 11 279
1888257N15099 1888 47 NI BB NOT_NAMED 1888-09-16 15:00:00 TS 20.8499 82.5037 main 0 0 _________PO___ -1 20.8997 82.2074 TC 30 20.8000 82.8000 1 12 280
1888257N15099 1888 47 NI BB NOT_NAMED 1888-09-16 18:00:00 TS 20.9565 81.8608 main 0 0 _________OP___ -1 21.0000 81.6000 TC 30 20.9129 82.1217 1 13 280
1888257N15099 1888 47 NI BB NOT_NAMED 1888-09-16 21:00:00 TS 21.0658 81.1716 main 0 0 _________PP___ -1 21.1079 80.8976 TC 30 21.0237 81.4456 1 12 280
1888257N15099 1888 47 NI BB NOT_NAMED 1888-09-17 00:00:00 TS 21.1612 80.5608 main 0 0 _________OP___ -1 21.2000 80.3000 TC 30 21.1224 80.8217 1 10 280
1888257N15099 1888 47 NI BB NOT_NAMED 1888-09-17 03:00:00 TS 21.2323 80.1449 main 0 0 _________PO___ -1 21.2645 79.9899 TC 30 21.2000 80.3000 1 7 279
1888257N15099 1888 47 NI BB NOT_NAMED 1888-09-17 06:00:00 TS 21.2665 79.8668 main 0 0 _________OP___ -1 21.3000 79.8000 TC 30 21.2330 79.9335 1 5 275
1888257N15099 1888 47 NI BB NOT_NAMED 1888-09-17 09:00:00 TS 21.2742 79.6071 main 0 0 _________PP___ -1 21.3000 79.5424 TC 30 21.2484 79.6718 1 4 272
1888257N15099 1888 47 NI BB NOT_NAMED 1888-09-17 12:00:00 TS 21.2823 79.3871 main 0 0 _________OP___ -1 21.3000 79.3000 TC 30 21.2647 79.4743 1 4 276
1888257N15099 1888 47 NI BB NOT_NAMED 1888-09-17 15:00:00 TS 21.3137 79.1962 main 0 0 _________PO___ -1 21.3274 79.0925 TC 30 21.3000 79.3000 1 4 283
1888257N15099 1888 47 NI BB NOT_NAMED 1888-09-17 18:00:00 TS 21.3668 78.9886 main 0 0 _________OP___ -1 21.4000 78.9000 TC 30 21.3337 79.0772 1 4 290
1888257N15099 1888 47 NI BB NOT_NAMED 1888-09-17 21:00:00 TS 21.4499 78.7847 main 0 0 _________PP___ -1 21.5050 78.6999 TC 30 21.3949 78.8695 1 4 302
1888257N15099 1888 47 NI BB NOT_NAMED 1888-09-18 00:00:00 TS 21.6043 78.5886 main 0 0 _________OP___ -1 21.7000 78.5000 TC 30 21.5087 78.6771 1 5 318
1888257N15099 1888 47 NI BB NOT_NAMED 1888-09-18 03:00:00 TS 21.8563 78.3926 main 0 0 _________PO___ -1 22.0125 78.2851 TC 30 21.7000 78.5000 1 7 329
1888257N15099 1888 47 NI BB NOT_NAMED 1888-09-18 06:00:00 TS 22.1959 78.2079 main 0 0 _________OP___ -1 22.4000 78.1000 TC 30 21.9919 78.3158 1 8 337
1888257N15099 1888 47 NI BB NOT_NAMED 1888-09-18 09:00:00 TS 22.5763 78.0628 main 0 0 _________PP___ -1 22.7925 77.9774 TC 30 22.3600 78.1482 1 8 344
1888257N15099 1888 47 NI AS NOT_NAMED 1888-09-18 12:00:00 TS 22.9866 77.9532 main 0 0 _________OP___ -1 23.2000 77.9000 TC 30 22.7732 78.0064 1 8 348
1888257N15099 1888 47 NI AS NOT_NAMED 1888-09-18 15:00:00 TS 23.4000 77.8675 main 0 0 _________PO___ -1 23.6000 77.8350 TC 30 23.2000 77.9000 1 8 351
1888257N15099 1888 47 NI AS NOT_NAMED 1888-09-18 18:00:00 TS 23.7882 77.8193 main 0 0 _________OP___ -1 24.0000 77.8000 TC 30 23.5765 77.8385 1 8 356
1888257N15099 1888 47 NI AS NOT_NAMED 1888-09-18 21:00:00 TS 24.1737 77.8058 main 0 0 _________PP___ -1 24.3850 77.7999 TC 30 23.9624 77.8118 1 8 0
1888257N15099 1888 47 NI AS NOT_NAMED 1888-09-19 00:00:00 TS 24.5836 77.8021 main 0 0 _________OP___ -1 24.8000 77.8000 TC 30 24.3671 77.8042 1 9 0
1888257N15099 1888 47 NI AS NOT_NAMED 1888-09-19 03:00:00 TS 25.0425 77.7751 main 0 0 _________PO___ -1 25.2850 77.7502 TC 30 24.8000 77.8000 1 10 357
1888257N15099 1888 47 NI AS NOT_NAMED 1888-09-19 06:00:00 TS 25.5356 77.7375 main 0 0 _________OP___ -1 25.8000 77.7000 TC 30 25.2713 77.7750 1 10 358
1888257N15099 1888 47 NI AS NOT_NAMED 1888-09-19 09:00:00 TS 26.0350 77.7249 main 0 0 _________PP___ -1 26.3000 77.6998 TC 30 25.7700 77.7499 1 10 359
1888257N15099 1888 47 NI AS NOT_NAMED 1888-09-19 12:00:00 TS 26.5419 77.7125 main 0 0 _________OP___ -1 26.8000 77.7000 TC 30 26.2838 77.7250 1 10 358
1888257N15099 1888 47 NI AS NOT_NAMED 1888-09-19 15:00:00 TS 27.0500 77.6751 main 0 0 _________PO___ -1 27.3000 77.6502 TC 30 26.8000 77.7000 1 10 357
1888257N15099 1888 47 NI AS NOT_NAMED 1888-09-19 18:00:00 TS 27.5193 77.6429 main 0 0 _________OP___ -1 27.8000 77.6000 TC 30 27.3087 77.6751 1 10 357
1888257N15099 1888 47 NI AS NOT_NAMED 1888-09-19 21:00:00 TS 28.0060 77.6250 main 0 0 _________PP___ -1 28.3000 77.5873 TC 30 27.8100 77.6502 1 10 0
1888257N15099 1888 47 NI AS NOT_NAMED 1888-09-20 00:00:00 TS 28.4708 77.6168 main 0 0 _________OP___ -1 28.8000 77.6000 TC 30 28.3062 77.6252 1 8 359
1888257N15099 1888 47 NI AS NOT_NAMED 1888-09-20 03:00:00 NR 28.8000 77.6000 main 0 __________O___ -1 TC 28.8000 77.6000 1 7 0

About IBTrACS Database

This database is a web-friendly format of International Best Track Archive for Climate Stewardship (IBTrACS), a global best track data archive curated by NOAA dating back to 1842.

Updated: 2021-11-26